Bydgoszcz Ignacy Jan Paderewski Airport Bydgoszcz PL
ICAO: EPBY
IATA: BZG
Category: Medium
Scheduled Services: Yes

Elevation: 235 ft
TransAlt. 6560 ft.

Airport Communications:
INFO:128.5
BYDGOSZCZ TWR:131

EPBY Zoom In..

If you have problems with the map follow the link
https://www.worldairports.se/pages/airport.php?
ICAO=EPBY

Runways:

(A) RW 08 length 8202 ft width 197 ft
---- / hdg 77

(B) RW 26 length 8202 ft width 197 ft
ILS 109.10 / hdg 257

Location; EPBY
Day. 05 / Time. 15.00 Zulu
* QNH: 1018
* Temperature: 01° c. 33.8°f.
* Wind from: 220° Speed 06 kn.
Dewpoint: -02° c.
Visibility: 10 km or more,
No clouds below 1,500 m.
No cumulonimbus, and no significant weather
fenomena in the aerodrome or its vicinity.

EPBY 051500Z 22006KT 190V250 CAVOK 01/M02 Q1018


Wind From 220°
Speed 06 kn.

 
 
jpsmedia worldairports.se 2019   terms of use